Galicia — CQYP — position and weather

sailwx.info

Track history (hours):
 
Tides and Currents Weather Stations Pressure Air Temp Water Temp Dewpoint Dewpoint Depression Visibility Wind Speed Wind Dir Waves Ship Positions

Galicia

Last reported at 2018-Jan-20 21:11 UTC. Time now 2018-Jan-20 23:16 UTC.
Position N 38°26' W 010°03'.

Length 149 m; draft 5.6 m.

Type: Cargo ship. MMSI: 255805895.

Date/timePositionNaut miles runAvg speedWind from/ knotsBaromVisibWave heightAir tempDewpointWater temp
2018-Jan-20 21:11N 38°26' W 010°03'210.3
2018-Jan-20 21:00N 38°28' W 010°03'1210.2
2018-Jan-20 19:52N 38°39' W 010°05'410.0
2018-Jan-20 19:26N 38°44' W 010°06'410.3
2018-Jan-20 19:00N 38°48' W 010°06'510.1
2018-Jan-20 18:30N 38°53' W 010°06'610.0
2018-Jan-20 17:53N 38°59' W 010°04'4 9.8
2018-Jan-20 17:30N 39°03' W 010°02'5 9.8
2018-Jan-20 17:00N 39°08' W 010°01'5 9.9
2018-Jan-20 16:30N 39°12' W 009°60'5 9.5
2018-Jan-20 15:59N 39°17' W 009°58'5 9.6
2018-Jan-20 15:28N 39°22' W 009°57'510.4
2018-Jan-20 15:00N 39°27' W 009°55'1510.6
2018-Jan-20 13:33N 39°42' W 009°50'110.3
2018-Jan-20 13:30N 39°42' W 009°49'810.2
2018-Jan-20 12:43N 39°50' W 009°47'  
2018-Jan-11 16:38N 39°22' W 009°47'213.9
2018-Jan-11 16:30N 39°21' W 009°47'713.7
2018-Jan-11 16:00N 39°14' W 009°49'713.6
2018-Jan-11 15:30N 39°07' W 009°49'713.7
2018-Jan-11 15:00N 39°00' W 009°50'713.6
2018-Jan-11 14:31N 38°54' W 009°51'611.4
2018-Jan-11 14:01N 38°48' W 009°51'5 9.8
2018-Jan-11 13:31N 38°43' W 009°51'5 9.6
2018-Jan-11 13:00N 38°38' W 009°49'611.6
2018-Jan-11 12:31N 38°33' W 009°46'713.5
2018-Jan-11 12:00N 38°26' W 009°45'913.6
2018-Jan-11 11:19N 38°17' W 009°43'1013.4
2018-Jan-11 10:36N 38°08' W 009°41'313.1
2018-Jan-11 10:23N 38°05' W 009°40'513.1
2018-Jan-11 09:59N 37°60' W 009°39'913.0
2018-Jan-11 09:17N 37°51' W 009°36'  
Track history (hours):
 
Tides and Currents Weather Stations Pressure Air Temp Water Temp Dewpoint Dewpoint Depression Visibility Wind Speed Wind Dir Waves Ship Positions

Galicia

Last reported at 2018-Jan-20 21:11 UTC. Time now 2018-Jan-20 23:16 UTC.
Position N 38°26' W 010°03'.

Length 149 m; draft 5.6 m.

Type: Cargo ship. MMSI: 255805895.

Date/timePositionNaut miles runAvg speedWind from/ knotsBaromVisibWave heightAir tempDewpointWater temp
2018-Jan-20 21:11N 38°26' W 010°03'210.3
2018-Jan-20 21:00N 38°28' W 010°03'1210.2
2018-Jan-20 19:52N 38°39' W 010°05'410.0
2018-Jan-20 19:26N 38°44' W 010°06'410.3
2018-Jan-20 19:00N 38°48' W 010°06'510.1
2018-Jan-20 18:30N 38°53' W 010°06'610.0
2018-Jan-20 17:53N 38°59' W 010°04'4 9.8
2018-Jan-20 17:30N 39°03' W 010°02'5 9.8
2018-Jan-20 17:00N 39°08' W 010°01'5 9.9
2018-Jan-20 16:30N 39°12' W 009°60'5 9.5
2018-Jan-20 15:59N 39°17' W 009°58'5 9.6
2018-Jan-20 15:28N 39°22' W 009°57'510.4
2018-Jan-20 15:00N 39°27' W 009°55'1510.6
2018-Jan-20 13:33N 39°42' W 009°50'110.3
2018-Jan-20 13:30N 39°42' W 009°49'810.2
2018-Jan-20 12:43N 39°50' W 009°47'  
2018-Jan-11 16:38N 39°22' W 009°47'213.9
2018-Jan-11 16:30N 39°21' W 009°47'713.7
2018-Jan-11 16:00N 39°14' W 009°49'713.6
2018-Jan-11 15:30N 39°07' W 009°49'713.7
2018-Jan-11 15:00N 39°00' W 009°50'713.6
2018-Jan-11 14:31N 38°54' W 009°51'611.4
2018-Jan-11 14:01N 38°48' W 009°51'5 9.8
2018-Jan-11 13:31N 38°43' W 009°51'5 9.6
2018-Jan-11 13:00N 38°38' W 009°49'611.6
2018-Jan-11 12:31N 38°33' W 009°46'713.5
2018-Jan-11 12:00N 38°26' W 009°45'913.6
2018-Jan-11 11:19N 38°17' W 009°43'1013.4
2018-Jan-11 10:36N 38°08' W 009°41'313.1
2018-Jan-11 10:23N 38°05' W 009°40'513.1
2018-Jan-11 09:59N 37°60' W 009°39'913.0
2018-Jan-11 09:17N 37°51' W 009°36'  

Dump ship's entire track history